CSAPA EDDW-EDDH
Flight info
| Callsign | CSAPA |
|---|---|
| Flight time | 0h 43m |
| Altitude | 2500 |
| Route | EDDW NROUTE NOVEMBER A1 HIGHWAY TANGO1 DCT TANGO2 TROUTE EDDH |
| Aircraft | C152/L-V/N |
Departure
| Time | 2026-04-23 15:44 |
|---|---|
| Airport | Bremen Airport (EDDW) |
Arrival
| Time | 2026-04-23 16:27 |
|---|---|
| Airport | Hamburg Helmut Schmidt Airport (EDDH) |
| Time | Latitude | Longitude | Altitude | Speed | Heading |
|---|---|---|---|---|---|
| 2026-04-23 15:22 | 53.05177 | 8.77811 | 17 ft | 0 kts | 136° |
| 2026-04-23 15:24 | 53.05176 | 8.77811 | 17 ft | 0 kts | 136° |
| 2026-04-23 15:29 | 53.05176 | 8.77812 | 17 ft | 0 kts | 136° |
| 2026-04-23 15:32 | 53.05169 | 8.77823 | 17 ft | 4 kts | 136° |
| 2026-04-23 15:33 | 53.05139 | 8.77880 | 17 ft | 7 kts | 114° |
| 2026-04-23 15:33 | 53.05141 | 8.77924 | 17 ft | 2 kts | 46° |
| 2026-04-23 15:33 | 53.05156 | 8.77952 | 17 ft | 5 kts | 51° |
| 2026-04-23 15:33 | 53.05191 | 8.78012 | 17 ft | 9 kts | 41° |
| 2026-04-23 15:34 | 53.05233 | 8.78091 | 17 ft | 10 kts | 66° |
| 2026-04-23 15:34 | 53.05241 | 8.78188 | 17 ft | 7 kts | 128° |
| 2026-04-23 15:34 | 53.05201 | 8.78258 | 17 ft | 9 kts | 133° |
| 2026-04-23 15:34 | 53.05156 | 8.78339 | 17 ft | 10 kts | 132° |
| 2026-04-23 15:35 | 53.05113 | 8.78417 | 17 ft | 9 kts | 132° |
| 2026-04-23 15:35 | 53.05075 | 8.78489 | 17 ft | 8 kts | 130° |
| 2026-04-23 15:35 | 53.05040 | 8.78560 | 17 ft | 9 kts | 130° |
| 2026-04-23 15:35 | 53.04990 | 8.78638 | 17 ft | 4 kts | 189° |
| 2026-04-23 15:36 | 53.04977 | 8.78624 | 17 ft | 0 kts | 215° |
| 2026-04-23 15:36 | 53.04962 | 8.78607 | 17 ft | 8 kts | 215° |
| 2026-04-23 15:36 | 53.04905 | 8.78548 | 17 ft | 9 kts | 208° |
| 2026-04-23 15:36 | 53.04854 | 8.78544 | 17 ft | 7 kts | 134° |
| 2026-04-23 15:37 | 53.04828 | 8.78613 | 17 ft | 9 kts | 109° |
| 2026-04-23 15:37 | 53.04827 | 8.78729 | 17 ft | 11 kts | 87° |
| 2026-04-23 15:37 | 53.04831 | 8.78865 | 17 ft | 12 kts | 87° |
| 2026-04-23 15:37 | 53.04835 | 8.79013 | 17 ft | 13 kts | 87° |
| 2026-04-23 15:38 | 53.04840 | 8.79168 | 17 ft | 13 kts | 87° |
| 2026-04-23 15:38 | 53.04844 | 8.79311 | 17 ft | 12 kts | 87° |
| 2026-04-23 15:38 | 53.04848 | 8.79441 | 17 ft | 11 kts | 87° |
| 2026-04-23 15:38 | 53.04852 | 8.79561 | 17 ft | 10 kts | 87° |
| 2026-04-23 15:39 | 53.04855 | 8.79671 | 17 ft | 9 kts | 87° |
| 2026-04-23 15:39 | 53.04857 | 8.79775 | 17 ft | 9 kts | 87° |
| 2026-04-23 15:39 | 53.04860 | 8.79873 | 17 ft | 8 kts | 88° |
| 2026-04-23 15:39 | 53.04860 | 8.79968 | 17 ft | 8 kts | 103° |
| 2026-04-23 15:40 | 53.04830 | 8.80014 | 17 ft | 4 kts | 167° |
| 2026-04-23 15:40 | 53.04822 | 8.80017 | 17 ft | 3 kts | 169° |
| 2026-04-23 15:40 | 53.04797 | 8.80022 | 17 ft | 3 kts | 176° |
| 2026-04-23 15:40 | 53.04795 | 8.80022 | 17 ft | 0 kts | 177° |
| 2026-04-23 15:42 | 53.04792 | 8.80022 | 17 ft | 2 kts | 177° |
| 2026-04-23 15:43 | 53.04759 | 8.80024 | 17 ft | 7 kts | 178° |
| 2026-04-23 15:43 | 53.04718 | 8.79989 | 17 ft | 7 kts | 245° |
| 2026-04-23 15:43 | 53.04706 | 8.79719 | 18 ft | 51 kts | 268° |
| 2026-04-23 15:43 | 53.04695 | 8.78940 | 153 ft | 69 kts | 269° |
| 2026-04-23 15:44 | 53.04684 | 8.78147 | 380 ft | 71 kts | 268° |
| 2026-04-23 15:44 | 53.04650 | 8.77277 | 512 ft | 85 kts | 265° |
| 2026-04-23 15:44 | 53.04610 | 8.76299 | 774 ft | 80 kts | 266° |
| 2026-04-23 15:44 | 53.04734 | 8.75364 | 930 ft | 89 kts | 298° |
| 2026-04-23 15:45 | 53.05168 | 8.74665 | 1137 ft | 90 kts | 332° |
| 2026-04-23 15:45 | 53.05785 | 8.74400 | 1315 ft | 90 kts | 351° |
| 2026-04-23 15:45 | 53.06388 | 8.74257 | 1538 ft | 89 kts | 352° |
| 2026-04-23 15:45 | 53.07003 | 8.74087 | 1707 ft | 90 kts | 350° |
| 2026-04-23 15:46 | 53.07626 | 8.73910 | 1864 ft | 94 kts | 350° |
| 2026-04-23 15:46 | 53.08290 | 8.73711 | 1966 ft | 98 kts | 349° |
| 2026-04-23 15:46 | 53.08976 | 8.73506 | 2040 ft | 103 kts | 350° |
| 2026-04-23 15:46 | 53.09724 | 8.73290 | 1973 ft | 114 kts | 350° |
| 2026-04-23 15:47 | 53.10507 | 8.73061 | 1956 ft | 115 kts | 350° |
| 2026-04-23 15:47 | 53.11297 | 8.72830 | 1954 ft | 115 kts | 350° |
| 2026-04-23 15:47 | 53.12082 | 8.72609 | 1956 ft | 115 kts | 350° |
| 2026-04-23 15:47 | 53.12881 | 8.72428 | 1928 ft | 116 kts | 354° |
| 2026-04-23 15:48 | 53.13686 | 8.72369 | 1925 ft | 116 kts | 1° |
| 2026-04-23 15:48 | 53.14483 | 8.72554 | 1911 ft | 115 kts | 16° |
| 2026-04-23 15:48 | 53.15190 | 8.73152 | 1932 ft | 113 kts | 38° |
| 2026-04-23 15:48 | 53.15702 | 8.74116 | 1961 ft | 113 kts | 58° |
| 2026-04-23 15:49 | 53.16007 | 8.75301 | 1973 ft | 113 kts | 74° |
| 2026-04-23 15:49 | 53.16173 | 8.76569 | 2020 ft | 110 kts | 79° |
| 2026-04-23 15:49 | 53.16293 | 8.77822 | 2070 ft | 109 kts | 82° |
| 2026-04-23 15:49 | 53.16380 | 8.79075 | 2114 ft | 109 kts | 84° |
| 2026-04-23 15:50 | 53.16442 | 8.80338 | 2166 ft | 108 kts | 86° |
| 2026-04-23 15:50 | 53.16486 | 8.81583 | 2230 ft | 107 kts | 87° |
| 2026-04-23 15:50 | 53.16515 | 8.82797 | 2341 ft | 102 kts | 88° |
| 2026-04-23 15:50 | 53.16536 | 8.83990 | 2422 ft | 103 kts | 88° |
| 2026-04-23 15:51 | 53.16555 | 8.85196 | 2469 ft | 106 kts | 88° |
| 2026-04-23 15:51 | 53.16577 | 8.86418 | 2508 ft | 105 kts | 88° |
| 2026-04-23 15:51 | 53.16606 | 8.87638 | 2518 ft | 105 kts | 87° |
| 2026-04-23 15:51 | 53.16643 | 8.88850 | 2543 ft | 104 kts | 86° |
| 2026-04-23 15:52 | 53.16691 | 8.90063 | 2554 ft | 105 kts | 85° |
| 2026-04-23 15:52 | 53.16753 | 8.91296 | 2515 ft | 109 kts | 84° |
| 2026-04-23 15:52 | 53.16829 | 8.92546 | 2495 ft | 109 kts | 83° |
| 2026-04-23 15:52 | 53.16920 | 8.93804 | 2474 ft | 109 kts | 83° |
| 2026-04-23 15:53 | 53.17023 | 8.95051 | 2457 ft | 109 kts | 82° |
| 2026-04-23 15:53 | 53.17140 | 8.96288 | 2432 ft | 109 kts | 81° |
| 2026-04-23 15:53 | 53.17270 | 8.97508 | 2463 ft | 106 kts | 79° |
| 2026-04-23 15:53 | 53.17414 | 8.98724 | 2451 ft | 107 kts | 78° |
| 2026-04-23 15:54 | 53.17573 | 8.99933 | 2461 ft | 106 kts | 77° |
| 2026-04-23 15:54 | 53.17747 | 9.01134 | 2460 ft | 107 kts | 76° |
| 2026-04-23 15:54 | 53.17938 | 9.02332 | 2458 ft | 107 kts | 74° |
| 2026-04-23 15:54 | 53.18121 | 9.03524 | 2473 ft | 106 kts | 76° |
| 2026-04-23 15:55 | 53.18288 | 9.04725 | 2468 ft | 107 kts | 77° |
| 2026-04-23 15:55 | 53.18451 | 9.05931 | 2477 ft | 106 kts | 77° |
| 2026-04-23 15:55 | 53.18575 | 9.07146 | 2470 ft | 107 kts | 83° |
| 2026-04-23 15:55 | 53.18646 | 9.08377 | 2486 ft | 105 kts | 85° |
| 2026-04-23 15:56 | 53.18694 | 9.09595 | 2467 ft | 106 kts | 87° |
| 2026-04-23 15:56 | 53.18728 | 9.10829 | 2449 ft | 106 kts | 88° |
| 2026-04-23 15:56 | 53.18753 | 9.12052 | 2443 ft | 105 kts | 88° |
| 2026-04-23 15:56 | 53.18773 | 9.13275 | 2442 ft | 105 kts | 88° |
| 2026-04-23 15:57 | 53.18794 | 9.14490 | 2430 ft | 105 kts | 88° |
| 2026-04-23 15:57 | 53.18817 | 9.15691 | 2461 ft | 103 kts | 88° |
| 2026-04-23 15:57 | 53.18846 | 9.16885 | 2468 ft | 103 kts | 87° |
| 2026-04-23 15:57 | 53.18884 | 9.18076 | 2474 ft | 103 kts | 86° |
| 2026-04-23 15:58 | 53.18933 | 9.19272 | 2467 ft | 104 kts | 85° |
| 2026-04-23 15:58 | 53.18995 | 9.20480 | 2468 ft | 104 kts | 84° |
| 2026-04-23 15:58 | 53.19071 | 9.21681 | 2469 ft | 104 kts | 83° |
| 2026-04-23 15:58 | 53.19162 | 9.22880 | 2468 ft | 104 kts | 82° |
| 2026-04-23 15:59 | 53.19268 | 9.24075 | 2469 ft | 104 kts | 81° |
| 2026-04-23 15:59 | 53.19390 | 9.25265 | 2469 ft | 104 kts | 79° |
| 2026-04-23 15:59 | 53.19544 | 9.26447 | 2469 ft | 104 kts | 73° |
| 2026-04-23 15:59 | 53.19820 | 9.27562 | 2470 ft | 104 kts | 62° |
| 2026-04-23 16:00 | 53.20186 | 9.28609 | 2469 ft | 104 kts | 58° |
| 2026-04-23 16:00 | 53.20572 | 9.29633 | 2468 ft | 104 kts | 57° |
| 2026-04-23 16:00 | 53.20975 | 9.30640 | 2468 ft | 104 kts | 55° |
| 2026-04-23 16:00 | 53.21394 | 9.31628 | 2466 ft | 104 kts | 54° |
| 2026-04-23 16:01 | 53.21824 | 9.32604 | 2464 ft | 104 kts | 54° |
| 2026-04-23 16:01 | 53.22243 | 9.33594 | 2461 ft | 105 kts | 55° |
| 2026-04-23 16:01 | 53.22654 | 9.34601 | 2460 ft | 105 kts | 56° |
| 2026-04-23 16:01 | 53.23048 | 9.35616 | 2462 ft | 104 kts | 57° |
| 2026-04-23 16:02 | 53.23434 | 9.36643 | 2456 ft | 105 kts | 58° |
| 2026-04-23 16:02 | 53.23808 | 9.37665 | 2467 ft | 103 kts | 59° |
| 2026-04-23 16:02 | 53.24180 | 9.38694 | 2464 ft | 104 kts | 59° |
| 2026-04-23 16:02 | 53.24561 | 9.39729 | 2465 ft | 104 kts | 57° |
| 2026-04-23 16:03 | 53.24978 | 9.40712 | 2473 ft | 104 kts | 52° |
| 2026-04-23 16:03 | 53.25440 | 9.41645 | 2470 ft | 104 kts | 49° |
| 2026-04-23 16:03 | 53.25909 | 9.42567 | 2471 ft | 104 kts | 50° |
| 2026-04-23 16:03 | 53.26381 | 9.43487 | 2472 ft | 104 kts | 49° |
| 2026-04-23 16:04 | 53.26860 | 9.44393 | 2473 ft | 104 kts | 48° |
| 2026-04-23 16:04 | 53.27349 | 9.45287 | 2474 ft | 104 kts | 47° |
| 2026-04-23 16:04 | 53.27849 | 9.46165 | 2476 ft | 104 kts | 46° |
| 2026-04-23 16:04 | 53.28354 | 9.47036 | 2477 ft | 104 kts | 47° |
| 2026-04-23 16:05 | 53.28676 | 9.47634 | 2474 ft | 105 kts | 49° |
| 2026-04-23 16:05 | 53.29295 | 9.48885 | 2479 ft | 104 kts | 51° |
| 2026-04-23 16:05 | 53.29743 | 9.49842 | 2479 ft | 104 kts | 52° |
| 2026-04-23 16:05 | 53.30184 | 9.50805 | 2481 ft | 104 kts | 53° |
| 2026-04-23 16:06 | 53.30597 | 9.51811 | 2476 ft | 105 kts | 58° |
| 2026-04-23 16:06 | 53.30958 | 9.52866 | 2477 ft | 105 kts | 62° |
| 2026-04-23 16:06 | 53.31290 | 9.53948 | 2479 ft | 104 kts | 64° |
| 2026-04-23 16:06 | 53.31604 | 9.55040 | 2478 ft | 105 kts | 65° |
| 2026-04-23 16:07 | 53.31909 | 9.56149 | 2480 ft | 104 kts | 65° |
| 2026-04-23 16:07 | 53.32207 | 9.57258 | 2480 ft | 105 kts | 66° |
| 2026-04-23 16:07 | 53.32502 | 9.58369 | 2482 ft | 105 kts | 66° |
| 2026-04-23 16:07 | 53.32799 | 9.59479 | 2484 ft | 104 kts | 65° |
| 2026-04-23 16:08 | 53.33100 | 9.60584 | 2485 ft | 105 kts | 65° |
| 2026-04-23 16:08 | 53.33408 | 9.61686 | 2488 ft | 105 kts | 64° |
| 2026-04-23 16:08 | 53.33724 | 9.62784 | 2490 ft | 105 kts | 64° |
| 2026-04-23 16:08 | 53.34045 | 9.63874 | 2492 ft | 105 kts | 63° |
| 2026-04-23 16:09 | 53.34375 | 9.64958 | 2494 ft | 105 kts | 62° |
| 2026-04-23 16:09 | 53.34716 | 9.66034 | 2495 ft | 105 kts | 62° |
| 2026-04-23 16:09 | 53.35063 | 9.67088 | 2497 ft | 105 kts | 60° |
| 2026-04-23 16:09 | 53.35429 | 9.68155 | 2498 ft | 105 kts | 59° |
| 2026-04-23 16:10 | 53.35796 | 9.69192 | 2499 ft | 105 kts | 59° |
| 2026-04-23 16:10 | 53.36182 | 9.70242 | 2499 ft | 105 kts | 58° |
| 2026-04-23 16:10 | 53.36562 | 9.71282 | 2497 ft | 105 kts | 62° |
| 2026-04-23 16:10 | 53.36819 | 9.72435 | 2471 ft | 107 kts | 76° |
| 2026-04-23 16:11 | 53.36936 | 9.73651 | 2484 ft | 105 kts | 83° |
| 2026-04-23 16:11 | 53.37003 | 9.74856 | 2475 ft | 106 kts | 85° |
| 2026-04-23 16:11 | 53.37063 | 9.76097 | 2463 ft | 106 kts | 85° |
| 2026-04-23 16:11 | 53.37121 | 9.77325 | 2466 ft | 106 kts | 85° |
| 2026-04-23 16:12 | 53.37181 | 9.78560 | 2455 ft | 106 kts | 85° |
| 2026-04-23 16:12 | 53.37246 | 9.79788 | 2454 ft | 106 kts | 84° |
| 2026-04-23 16:12 | 53.37317 | 9.81018 | 2450 ft | 106 kts | 84° |
| 2026-04-23 16:12 | 53.37398 | 9.82247 | 2446 ft | 106 kts | 83° |
| 2026-04-23 16:13 | 53.37489 | 9.83476 | 2441 ft | 106 kts | 82° |
| 2026-04-23 16:13 | 53.37706 | 9.85922 | 2432 ft | 106 kts | 81° |
| 2026-04-23 16:13 | 53.37838 | 9.87137 | 2427 ft | 106 kts | 77° |
| 2026-04-23 16:14 | 53.38094 | 9.88295 | 2422 ft | 106 kts | 63° |
| 2026-04-23 16:14 | 53.38497 | 9.89325 | 2433 ft | 105 kts | 51° |
| 2026-04-23 16:14 | 53.38993 | 9.90214 | 2438 ft | 105 kts | 45° |
| 2026-04-23 16:14 | 53.39515 | 9.91088 | 2434 ft | 106 kts | 44° |
| 2026-04-23 16:15 | 53.40044 | 9.91936 | 2443 ft | 105 kts | 43° |
| 2026-04-23 16:15 | 53.40585 | 9.92761 | 2446 ft | 105 kts | 41° |
| 2026-04-23 16:15 | 53.40950 | 9.93290 | 2461 ft | 104 kts | 40° |
| 2026-04-23 16:15 | 53.41508 | 9.94079 | 2455 ft | 105 kts | 39° |
| 2026-04-23 16:16 | 53.42074 | 9.94843 | 2475 ft | 104 kts | 39° |
| 2026-04-23 16:16 | 53.42640 | 9.95611 | 2482 ft | 105 kts | 39° |
| 2026-04-23 16:16 | 53.43206 | 9.96380 | 2488 ft | 105 kts | 39° |
| 2026-04-23 16:16 | 53.43772 | 9.97145 | 2495 ft | 105 kts | 39° |
| 2026-04-23 16:17 | 53.44331 | 9.97932 | 2499 ft | 105 kts | 41° |
| 2026-04-23 16:17 | 53.44881 | 9.98735 | 2507 ft | 105 kts | 40° |
| 2026-04-23 16:17 | 53.45478 | 9.99431 | 2511 ft | 105 kts | 26° |
| 2026-04-23 16:17 | 53.46169 | 9.99810 | 2515 ft | 105 kts | 10° |
| 2026-04-23 16:18 | 53.46897 | 9.99839 | 2521 ft | 105 kts | 355° |
| 2026-04-23 16:18 | 53.47629 | 9.99789 | 2520 ft | 105 kts | 359° |
| 2026-04-23 16:18 | 53.48359 | 9.99779 | 2532 ft | 105 kts | 360° |
| 2026-04-23 16:18 | 53.49090 | 9.99786 | 2534 ft | 105 kts | 0° |
| 2026-04-23 16:19 | 53.49820 | 9.99784 | 2541 ft | 105 kts | 0° |
| 2026-04-23 16:19 | 53.50553 | 9.99800 | 2539 ft | 105 kts | 1° |
| 2026-04-23 16:19 | 53.51284 | 9.99829 | 2549 ft | 105 kts | 1° |
| 2026-04-23 16:19 | 53.52012 | 9.99861 | 2552 ft | 105 kts | 1° |
| 2026-04-23 16:20 | 53.52751 | 9.99891 | 2528 ft | 107 kts | 1° |
| 2026-04-23 16:20 | 53.53497 | 9.99913 | 2505 ft | 107 kts | 1° |
| 2026-04-23 16:20 | 53.54235 | 9.99925 | 2479 ft | 107 kts | 0° |
| 2026-04-23 16:20 | 53.54981 | 9.99923 | 2458 ft | 107 kts | 359° |
| 2026-04-23 16:21 | 53.55722 | 9.99952 | 2415 ft | 106 kts | 7° |
| 2026-04-23 16:21 | 53.56437 | 10.00303 | 2229 ft | 109 kts | 23° |
| 2026-04-23 16:21 | 53.57084 | 10.00936 | 2070 ft | 107 kts | 37° |
| 2026-04-23 16:21 | 53.57632 | 10.01780 | 1909 ft | 106 kts | 45° |
| 2026-04-23 16:22 | 53.58149 | 10.02663 | 1859 ft | 108 kts | 45° |
| 2026-04-23 16:22 | 53.58675 | 10.03545 | 1864 ft | 105 kts | 45° |
| 2026-04-23 16:22 | 53.59206 | 10.04424 | 1782 ft | 109 kts | 45° |
| 2026-04-23 16:22 | 53.59734 | 10.05319 | 1757 ft | 106 kts | 45° |
| 2026-04-23 16:23 | 53.60250 | 10.06215 | 1691 ft | 108 kts | 46° |
| 2026-04-23 16:23 | 53.60774 | 10.07087 | 1612 ft | 104 kts | 41° |
| 2026-04-23 16:23 | 53.61398 | 10.07683 | 1402 ft | 102 kts | 19° |
| 2026-04-23 16:23 | 53.62104 | 10.07879 | 1292 ft | 104 kts | 0° |
| 2026-04-23 16:24 | 53.62789 | 10.07613 | 1301 ft | 98 kts | 336° |
| 2026-04-23 16:24 | 53.63371 | 10.07089 | 1215 ft | 93 kts | 329° |
| 2026-04-23 16:24 | 53.63913 | 10.06470 | 953 ft | 97 kts | 323° |
| 2026-04-23 16:24 | 53.64457 | 10.05792 | 732 ft | 90 kts | 323° |
| 2026-04-23 16:25 | 53.64886 | 10.05259 | 700 ft | 73 kts | 323° |
| 2026-04-23 16:25 | 53.65272 | 10.04613 | 673 ft | 82 kts | 300° |
| 2026-04-23 16:25 | 53.65378 | 10.03697 | 671 ft | 80 kts | 261° |
| 2026-04-23 16:25 | 53.65078 | 10.02914 | 684 ft | 81 kts | 225° |
| 2026-04-23 16:26 | 53.64690 | 10.02247 | 698 ft | 80 kts | 226° |
| 2026-04-23 16:26 | 53.64322 | 10.01542 | 681 ft | 79 kts | 230° |
| 2026-04-23 16:26 | 53.63985 | 10.00794 | 582 ft | 80 kts | 234° |
| 2026-04-23 16:26 | 53.63663 | 10.00064 | 456 ft | 77 kts | 232° |
| 2026-04-23 16:27 | 53.63328 | 9.99413 | 279 ft | 72 kts | 226° |
| 2026-04-23 16:27 | 53.63010 | 9.98775 | 116 ft | 70 kts | 230° |
| 2026-04-23 16:27 | 53.62710 | 9.98167 | 65 ft | 65 kts | 229° |
| 2026-04-23 16:27 | 53.62472 | 9.97684 | 56 ft | 39 kts | 230° |
| 2026-04-23 16:28 | 53.62332 | 9.97399 | 56 ft | 25 kts | 230° |
| 2026-04-23 16:28 | 53.62275 | 9.97356 | 56 ft | 7 kts | 136° |
| 2026-04-23 16:28 | 53.62240 | 9.97412 | 56 ft | 9 kts | 137° |
| 2026-04-23 16:28 | 53.62203 | 9.97464 | 56 ft | 6 kts | 141° |
| 2026-04-23 16:29 | 53.62182 | 9.97508 | 56 ft | 6 kts | 114° |
| 2026-04-23 16:29 | 53.62167 | 9.97604 | 56 ft | 6 kts | 47° |
| 2026-04-23 16:29 | 53.62204 | 9.97673 | 56 ft | 9 kts | 51° |
| 2026-04-23 16:29 | 53.62249 | 9.97767 | 56 ft | 12 kts | 51° |
| 2026-04-23 16:30 | 53.62306 | 9.97884 | 56 ft | 14 kts | 51° |
| 2026-04-23 16:30 | 53.62372 | 9.98019 | 56 ft | 16 kts | 50° |
| 2026-04-23 16:30 | 53.62440 | 9.98157 | 56 ft | 15 kts | 50° |
| 2026-04-23 16:30 | 53.62504 | 9.98283 | 56 ft | 13 kts | 50° |
| 2026-04-23 16:31 | 53.62572 | 9.98366 | 56 ft | 11 kts | 38° |
| 2026-04-23 16:31 | 53.62637 | 9.98460 | 56 ft | 15 kts | 47° |
| 2026-04-23 16:31 | 53.62720 | 9.98609 | 56 ft | 19 kts | 46° |
| 2026-04-23 16:31 | 53.62804 | 9.98770 | 56 ft | 12 kts | 54° |
| 2026-04-23 16:32 | 53.62844 | 9.98910 | 56 ft | 9 kts | 84° |
| 2026-04-23 16:32 | 53.62849 | 9.98988 | 56 ft | 3 kts | 60° |
| 2026-04-23 16:32 | 53.62851 | 9.98992 | 56 ft | 0 kts | 60° |
| 2026-04-23 16:33 | 53.62851 | 9.98993 | 56 ft | 0 kts | 60° |
| 2026-04-23 16:33 | 53.62852 | 9.98994 | 56 ft | 2 kts | 68° |
| 2026-04-23 16:33 | 53.62835 | 9.99024 | 56 ft | 4 kts | 142° |
| 2026-04-23 16:33 | 53.62823 | 9.99040 | 56 ft | 1 kts | 142° |
| 2026-04-23 16:34 | 53.62812 | 9.99055 | 56 ft | 8 kts | 142° |
| 2026-04-23 16:34 | 53.62751 | 9.99125 | 56 ft | 12 kts | 147° |
| 2026-04-23 16:34 | 53.62692 | 9.99146 | 56 ft | 3 kts | 177° |
| 2026-04-23 16:34 | 53.62677 | 9.99148 | 56 ft | 4 kts | 177° |
| 2026-04-23 16:35 | 53.62613 | 9.99150 | 56 ft | 11 kts | 184° |
| 2026-04-23 16:35 | 53.62574 | 9.99076 | 56 ft | 9 kts | 258° |
| 2026-04-23 16:35 | 53.62562 | 9.98975 | 56 ft | 9 kts | 266° |
| 2026-04-23 16:35 | 53.62595 | 9.98916 | 56 ft | 9 kts | 328° |
| 2026-04-23 16:36 | 53.62645 | 9.98850 | 56 ft | 9 kts | 301° |
| 2026-04-23 16:36 | 53.62646 | 9.98833 | 56 ft | 0 kts | 246° |